sensor_id;sensor_type;location;lat;lon;timestamp;pressure;altitude;pressure_sealevel;temperature;humidity
74268;BME280;62638;51.362;12.472;2022-11-18T00:01:12;98606.31;;;4.41;100.00
74268;BME280;62638;51.362;12.472;2022-11-18T00:03:39;98601.19;;;4.40;100.00
74268;BME280;62638;51.362;12.472;2022-11-18T00:06:06;98601.72;;;4.43;100.00
74268;BME280;62638;51.362;12.472;2022-11-18T00:08:32;98603.53;;;4.43;100.00
74268;BME280;62638;51.362;12.472;2022-11-18T00:11:03;98602.69;;;4.42;100.00
74268;BME280;62638;51.362;12.472;2022-11-18T00:13:29;98595.88;;;4.40;100.00
74268;BME280;62638;51.362;12.472;2022-11-18T00:16:12;98603.66;;;4.41;100.00
74268;BME280;62638;51.362;12.472;2022-11-18T00:18:38;98618.59;;;4.42;100.00
74268;BME280;62638;51.362;12.472;2022-11-18T00:21:05;98625.16;;;4.48;100.00
74268;BME280;62638;51.362;12.472;2022-11-18T00:23:31;98626.13;;;4.47;100.00
74268;BME280;62638;51.362;12.472;2022-11-18T00:26:12;98630.00;;;4.52;100.00
74268;BME280;62638;51.362;12.472;2022-11-18T00:28:38;98636.59;;;4.48;100.00
74268;BME280;62638;51.362;12.472;2022-11-18T00:31:06;98617.31;;;4.46;100.00
74268;BME280;62638;51.362;12.472;2022-11-18T00:33:32;98611.72;;;4.49;100.00
74268;BME280;62638;51.362;12.472;2022-11-18T00:35:57;98620.81;;;4.47;100.00
74268;BME280;62638;51.362;12.472;2022-11-18T00:38:23;98613.69;;;4.47;100.00
74268;BME280;62638;51.362;12.472;2022-11-18T00:43:31;98609.81;;;4.42;100.00
74268;BME280;62638;51.362;12.472;2022-11-18T00:45:57;98621.56;;;4.39;100.00
74268;BME280;62638;51.362;12.472;2022-11-18T00:48:22;98625.47;;;4.35;100.00
74268;BME280;62638;51.362;12.472;2022-11-18T00:50:52;98626.75;;;4.31;100.00
74268;BME280;62638;51.362;12.472;2022-11-18T00:53:18;98630.38;;;4.30;100.00
74268;BME280;62638;51.362;12.472;2022-11-18T00:55:44;98630.38;;;4.30;100.00
74268;BME280;62638;51.362;12.472;2022-11-18T00:58:10;98637.34;;;4.31;100.00
74268;BME280;62638;51.362;12.472;2022-11-18T01:00:42;98635.50;;;4.32;100.00
74268;BME280;62638;51.362;12.472;2022-11-18T01:03:09;98630.50;;;4.29;100.00
74268;BME280;62638;51.362;12.472;2022-11-18T01:05:35;98636.63;;;4.29;100.00
74268;BME280;62638;51.362;12.472;2022-11-18T01:08:02;98637.47;;;4.30;100.00
74268;BME280;62638;51.362;12.472;2022-11-18T01:10:28;98639.28;;;4.29;100.00
74268;BME280;62638;51.362;12.472;2022-11-18T01:12:53;98636.34;;;4.32;100.00
74268;BME280;62638;51.362;12.472;2022-11-18T01:15:42;98635.66;;;4.30;100.00
74268;BME280;62638;51.362;12.472;2022-11-18T01:18:07;98625.06;;;4.30;100.00
74268;BME280;62638;51.362;12.472;2022-11-18T01:20:33;98636.94;;;4.26;100.00
74268;BME280;62638;51.362;12.472;2022-11-18T01:22:59;98635.38;;;4.33;100.00
74268;BME280;62638;51.362;12.472;2022-11-18T01:25:25;98636.34;;;4.32;100.00
74268;BME280;62638;51.362;12.472;2022-11-18T01:27:50;98635.50;;;4.32;100.00
74268;BME280;62638;51.362;12.472;2022-11-18T01:30:16;98640.00;;;4.31;100.00
74268;BME280;62638;51.362;12.472;2022-11-18T01:32:42;98633.41;;;4.35;100.00
74268;BME280;62638;51.362;12.472;2022-11-18T01:35:09;98627.28;;;4.35;100.00
74268;BME280;62638;51.362;12.472;2022-11-18T01:37:34;98624.34;;;4.38;100.00
74268;BME280;62638;51.362;12.472;2022-11-18T01:39:59;98621.16;;;4.34;100.00
74268;BME280;62638;51.362;12.472;2022-11-18T01:42:25;98617.25;;;4.29;100.00
74268;BME280;62638;51.362;12.472;2022-11-18T01:44:58;98620.16;;;4.35;100.00
74268;BME280;62638;51.362;12.472;2022-11-18T01:47:31;98629.78;;;4.36;100.00
74268;BME280;62638;51.362;12.472;2022-11-18T01:49:58;98624.22;;;4.30;100.00
74268;BME280;62638;51.362;12.472;2022-11-18T01:52:23;98618.22;;;4.28;100.00
74268;BME280;62638;51.362;12.472;2022-11-18T01:54:52;98613.09;;;4.26;100.00
74268;BME280;62638;51.362;12.472;2022-11-18T01:57:20;98614.19;;;4.24;100.00
74268;BME280;62638;51.362;12.472;2022-11-18T01:59:48;98617.25;;;4.29;100.00
74268;BME280;62638;51.362;12.472;2022-11-18T02:02:14;98625.19;;;4.29;100.00
74268;BME280;62638;51.362;12.472;2022-11-18T02:04:43;98628.16;;;4.26;100.00
74268;BME280;62638;51.362;12.472;2022-11-18T02:07:09;98625.31;;;4.27;100.00
74268;BME280;62638;51.362;12.472;2022-11-18T02:09:36;98637.47;;;4.30;100.00
74268;BME280;62638;51.362;12.472;2022-11-18T02:12:02;98631.88;;;4.33;100.00
74268;BME280;62638;51.362;12.472;2022-11-18T02:14:33;98629.41;;;4.31;100.00
74268;BME280;62638;51.362;12.472;2022-11-18T02:19:40;98637.50;;;4.20;100.00
74268;BME280;62638;51.362;12.472;2022-11-18T02:22:31;98635.44;;;4.14;100.00
74268;BME280;62638;51.362;12.472;2022-11-18T02:28:01;98639.16;;;4.21;100.00
74268;BME280;62638;51.362;12.472;2022-11-18T02:30:35;98631.78;;;4.25;100.00
74268;BME280;62638;51.362;12.472;2022-11-18T02:33:08;98630.25;;;4.22;100.00
74268;BME280;62638;51.362;12.472;2022-11-18T02:35:44;98627.59;;;4.22;100.00
74268;BME280;62638;51.362;12.472;2022-11-18T02:38:19;98634.31;;;4.17;100.00
74268;BME280;62638;51.362;12.472;2022-11-18T02:41:07;98641.84;;;4.11;100.00
74268;BME280;62638;51.362;12.472;2022-11-18T02:43:37;98632.63;;;4.16;100.00
74268;BME280;62638;51.362;12.472;2022-11-18T02:46:07;98647.13;;;4.21;100.00
74268;BME280;62638;51.362;12.472;2022-11-18T02:48:36;98640.44;;;4.17;100.00
74268;BME280;62638;51.362;12.472;2022-11-18T02:51:05;98639.47;;;4.18;100.00
74268;BME280;62638;51.362;12.472;2022-11-18T02:53:32;98637.38;;;4.12;100.00
74268;BME280;62638;51.362;12.472;2022-11-18T02:56:00;98640.03;;;4.12;100.00
74268;BME280;62638;51.362;12.472;2022-11-18T02:58:26;98641.53;;;4.15;100.00
74268;BME280;62638;51.362;12.472;2022-11-18T03:00:59;98638.75;;;4.16;100.00
74268;BME280;62638;51.362;12.472;2022-11-18T03:03:27;98637.25;;;4.14;100.00
74268;BME280;62638;51.362;12.472;2022-11-18T03:08:45;98644.91;;;4.17;100.00
74268;BME280;62638;51.362;12.472;2022-11-18T03:11:17;98642.94;;;4.19;100.00
74268;BME280;62638;51.362;12.472;2022-11-18T03:14:13;98649.78;;;4.21;100.00
74268;BME280;62638;51.362;12.472;2022-11-18T03:16:50;98659.81;;;4.18;100.00
74268;BME280;62638;51.362;12.472;2022-11-18T03:19:27;98660.38;;;4.11;100.00
74268;BME280;62638;51.362;12.472;2022-11-18T03:24:29;98657.72;;;4.11;100.00
74268;BME280;62638;51.362;12.472;2022-11-18T03:27:12;98661.94;;;4.04;100.00
74268;BME280;62638;51.362;12.472;2022-11-18T03:29:46;98673.50;;;4.03;100.00
74268;BME280;62638;51.362;12.472;2022-11-18T03:32:18;98684.09;;;4.03;100.00
74268;BME280;62638;51.362;12.472;2022-11-18T03:34:48;98688.31;;;3.96;100.00
74268;BME280;62638;51.362;12.472;2022-11-18T03:37:17;98691.38;;;3.92;100.00
74268;BME280;62638;51.362;12.472;2022-11-18T03:39:52;98690.25;;;3.85;100.00
74268;BME280;62638;51.362;12.472;2022-11-18T03:42:23;98689.13;;;3.78;100.00
74268;BME280;62638;51.362;12.472;2022-11-18T03:44:53;98693.59;;;3.77;100.00
74268;BME280;62638;51.362;12.472;2022-11-18T03:47:31;98702.78;;;3.73;100.00
74268;BME280;62638;51.362;12.472;2022-11-18T03:50:03;98711.44;;;3.65;100.00
74268;BME280;62638;51.362;12.472;2022-11-18T03:52:32;98710.88;;;3.62;100.00
74268;BME280;62638;51.362;12.472;2022-11-18T03:55:03;98716.28;;;3.60;100.00
74268;BME280;62638;51.362;12.472;2022-11-18T03:57:37;98716.41;;;3.59;100.00
74268;BME280;62638;51.362;12.472;2022-11-18T04:00:12;98714.63;;;3.59;100.00
74268;BME280;62638;51.362;12.472;2022-11-18T04:02:38;98718.94;;;3.60;100.00
74268;BME280;62638;51.362;12.472;2022-11-18T04:05:07;98720.31;;;3.55;100.00
74268;BME280;62638;51.362;12.472;2022-11-18T04:07:39;98725.06;;;3.51;100.00
74268;BME280;62638;51.362;12.472;2022-11-18T04:10:18;98718.91;;;3.51;100.00
74268;BME280;62638;51.362;12.472;2022-11-18T04:12:48;98713.78;;;3.49;100.00
74268;BME280;62638;51.362;12.472;2022-11-18T04:15:16;98720.88;;;3.49;100.00
74268;BME280;62638;51.362;12.472;2022-11-18T04:17:42;98717.84;;;3.53;100.00
74268;BME280;62638;51.362;12.472;2022-11-18T04:20:16;98721.00;;;3.47;100.00
74268;BME280;62638;51.362;12.472;2022-11-18T04:22:42;98725.19;;;3.50;100.00
74268;BME280;62638;51.362;12.472;2022-11-18T04:25:08;98722.25;;;3.43;100.00
74268;BME280;62638;51.362;12.472;2022-11-18T04:27:33;98724.91;;;3.43;100.00
74268;BME280;62638;51.362;12.472;2022-11-18T04:29:59;98725.72;;;3.34;100.00
74268;BME280;62638;51.362;12.472;2022-11-18T04:32:24;98727.69;;;3.32;100.00
74268;BME280;62638;51.362;12.472;2022-11-18T04:34:49;98725.56;;;3.26;100.00
74268;BME280;62638;51.362;12.472;2022-11-18T04:37:15;98725.56;;;3.26;100.00
74268;BME280;62638;51.362;12.472;2022-11-18T04:39:40;98720.69;;;3.22;100.00
74268;BME280;62638;51.362;12.472;2022-11-18T04:42:05;98725.13;;;3.21;100.00
74268;BME280;62638;51.362;12.472;2022-11-18T04:44:32;98725.13;;;3.21;100.00
74268;BME280;62638;51.362;12.472;2022-11-18T04:47:00;98734.19;;;3.18;100.00
74268;BME280;62638;51.362;12.472;2022-11-18T04:49:27;98740.31;;;3.19;100.00
74268;BME280;62638;51.362;12.472;2022-11-18T04:51:53;98743.59;;;3.11;100.00
74268;BME280;62638;51.362;12.472;2022-11-18T04:54:19;98736.34;;;3.04;100.00
74268;BME280;62638;51.362;12.472;2022-11-18T04:56:45;98750.53;;;3.03;100.00
74268;BME280;62638;51.362;12.472;2022-11-18T04:59:12;98750.69;;;3.11;100.00
74268;BME280;62638;51.362;12.472;2022-11-18T05:01:38;98751.25;;;3.05;100.00
74268;BME280;62638;51.362;12.472;2022-11-18T05:04:04;98755.81;;;3.03;100.00
74268;BME280;62638;51.362;12.472;2022-11-18T05:06:30;98760.16;;;3.04;100.00
74268;BME280;62638;51.362;12.472;2022-11-18T05:08:57;98763.91;;;3.01;100.00
74268;BME280;62638;51.362;12.472;2022-11-18T05:11:23;98766.97;;;2.97;100.00
74268;BME280;62638;51.362;12.472;2022-11-18T05:14:06;98769.72;;;2.95;100.00
74268;BME280;62638;51.362;12.472;2022-11-18T05:16:32;98764.56;;;2.94;100.00
74268;BME280;62638;51.362;12.472;2022-11-18T05:18:57;98767.88;;;2.86;100.00
74268;BME280;62638;51.362;12.472;2022-11-18T05:21:22;98770.25;;;2.89;100.00
74268;BME280;62638;51.362;12.472;2022-11-18T05:23:48;98764.13;;;2.89;100.00
74268;BME280;62638;51.362;12.472;2022-11-18T05:26:13;98766.06;;;2.87;100.00
74268;BME280;62638;51.362;12.472;2022-11-18T05:28:39;98778.31;;;2.88;100.00
74268;BME280;62638;51.362;12.472;2022-11-18T05:31:14;98785.28;;;2.89;100.00
74268;BME280;62638;51.362;12.472;2022-11-18T05:33:40;98793.72;;;2.83;100.00
74268;BME280;62638;51.362;12.472;2022-11-18T05:36:11;98796.25;;;2.84;100.00
74268;BME280;62638;51.362;12.472;2022-11-18T05:38:36;98805.44;;;2.90;100.00
74268;BME280;62638;51.362;12.472;2022-11-18T05:41:02;98814.75;;;2.84;100.00
74268;BME280;62638;51.362;12.472;2022-11-18T05:43:28;98813.78;;;2.85;100.00
74268;BME280;62638;51.362;12.472;2022-11-18T05:45:54;98813.47;;;2.79;100.00
74268;BME280;62638;51.362;12.472;2022-11-18T05:48:19;98815.53;;;2.75;100.00
74268;BME280;62638;51.362;12.472;2022-11-18T05:50:46;98814.81;;;2.73;100.00
74268;BME280;62638;51.362;12.472;2022-11-18T05:53:13;98817.22;;;2.76;100.00
74268;BME280;62638;51.362;12.472;2022-11-18T05:55:43;98812.75;;;2.77;100.00
74268;BME280;62638;51.362;12.472;2022-11-18T05:58:11;98824.16;;;2.77;100.00
74268;BME280;62638;51.362;12.472;2022-11-18T06:00:37;98824.16;;;2.77;100.00
74268;BME280;62638;51.362;12.472;2022-11-18T06:03:07;98825.78;;;2.68;100.00
74268;BME280;62638;51.362;12.472;2022-11-18T06:05:36;98825.78;;;2.68;100.00
74268;BME280;62638;51.362;12.472;2022-11-18T06:08:01;98830.09;;;2.69;100.00
74268;BME280;62638;51.362;12.472;2022-11-18T06:10:30;98828.81;;;2.64;100.00
74268;BME280;62638;51.362;12.472;2022-11-18T06:13:00;98823.66;;;2.62;100.00
74268;BME280;62638;51.362;12.472;2022-11-18T06:15:30;98813.59;;;2.56;100.00
74268;BME280;62638;51.362;12.472;2022-11-18T06:18:10;98824.81;;;2.49;100.00
74268;BME280;62638;51.362;12.472;2022-11-18T06:20:38;98832.94;;;2.57;100.00
74268;BME280;62638;51.362;12.472;2022-11-18T06:23:04;98826.34;;;2.51;100.00
74268;BME280;62638;51.362;12.472;2022-11-18T06:25:30;98827.59;;;2.47;100.00
74268;BME280;62638;51.362;12.472;2022-11-18T06:27:58;98838.69;;;2.41;100.00
74268;BME280;62638;51.362;12.472;2022-11-18T06:30:25;98845.31;;;2.36;100.00
74268;BME280;62638;51.362;12.472;2022-11-18T06:32:50;98843.88;;;2.32;100.00
74268;BME280;62638;51.362;12.472;2022-11-18T06:35:15;98855.53;;;2.29;100.00
74268;BME280;62638;51.362;12.472;2022-11-18T06:37:41;98857.94;;;2.32;100.00
74268;BME280;62638;51.362;12.472;2022-11-18T06:40:07;98860.69;;;2.31;100.00
74268;BME280;62638;51.362;12.472;2022-11-18T06:42:32;98864.44;;;2.28;100.00
74268;BME280;62638;51.362;12.472;2022-11-18T06:45:16;98855.53;;;2.29;100.00
74268;BME280;62638;51.362;12.472;2022-11-18T06:47:41;98868.50;;;2.32;100.00
74268;BME280;62638;51.362;12.472;2022-11-18T06:50:07;98869.72;;;2.28;100.00
74268;BME280;62638;51.362;12.472;2022-11-18T06:52:33;98871.38;;;2.29;100.00
74268;BME280;62638;51.362;12.472;2022-11-18T06:54:58;98876.53;;;2.31;100.00
74268;BME280;62638;51.362;12.472;2022-11-18T06:57:23;98881.94;;;2.29;100.00
74268;BME280;62638;51.362;12.472;2022-11-18T06:59:48;98888.31;;;2.26;100.00
74268;BME280;62638;51.362;12.472;2022-11-18T07:02:14;98887.22;;;2.29;100.00
74268;BME280;62638;51.362;12.472;2022-11-18T07:04:39;98883.88;;;2.27;100.00
74268;BME280;62638;51.362;12.472;2022-11-18T07:07:06;98888.22;;;2.28;100.00
74268;BME280;62638;51.362;12.472;2022-11-18T07:09:32;98892.50;;;2.29;100.00
74268;BME280;62638;51.362;12.472;2022-11-18T07:11:57;98895.50;;;2.24;100.00
74268;BME280;62638;51.362;12.472;2022-11-18T07:14:23;98888.47;;;2.14;100.00
74268;BME280;62638;51.362;12.472;2022-11-18T07:16:48;98897.34;;;2.13;100.00
74268;BME280;62638;51.362;12.472;2022-11-18T07:19:13;98898.31;;;2.12;100.00
74268;BME280;62638;51.362;12.472;2022-11-18T07:21:39;98906.97;;;2.14;100.00
74268;BME280;62638;51.362;12.472;2022-11-18T07:24:06;98907.56;;;2.17;100.00
74268;BME280;62638;51.362;12.472;2022-11-18T07:26:33;98906.84;;;2.15;100.00
74268;BME280;62638;51.362;12.472;2022-11-18T07:28:58;98919.44;;;2.12;100.00
74268;BME280;62638;51.362;12.472;2022-11-18T07:31:23;98914.53;;;2.07;100.00
74268;BME280;62638;51.362;12.472;2022-11-18T07:33:49;98922.09;;;2.12;100.00
74268;BME280;62638;51.362;12.472;2022-11-18T07:36:22;98918.50;;;2.13;100.00
74268;BME280;62638;51.362;12.472;2022-11-18T07:38:49;98916.09;;;2.10;100.00
74268;BME280;62638;51.362;12.472;2022-11-18T07:41:20;98935.06;;;2.04;100.00
74268;BME280;62638;51.362;12.472;2022-11-18T07:43:46;98936.28;;;2.00;100.00
74268;BME280;62638;51.362;12.472;2022-11-18T07:48:44;98940.00;;;1.97;100.00
74268;BME280;62638;51.362;12.472;2022-11-18T07:51:10;98937.72;;;1.93;100.00
74268;BME280;62638;51.362;12.472;2022-11-18T07:53:35;98936.16;;;1.90;100.00
74268;BME280;62638;51.362;12.472;2022-11-18T07:56:01;98941.22;;;1.93;100.00
74268;BME280;62638;51.362;12.472;2022-11-18T07:58:27;98933.66;;;1.89;100.00
74268;BME280;62638;51.362;12.472;2022-11-18T08:00:52;98951.63;;;1.95;100.00
74268;BME280;62638;51.362;12.472;2022-11-18T08:03:17;98957.53;;;1.98;100.00
74268;BME280;62638;51.362;12.472;2022-11-18T08:05:43;98959.19;;;1.99;100.00
74268;BME280;62638;51.362;12.472;2022-11-18T08:08:08;98964.50;;;1.88;100.00
74268;BME280;62638;51.362;12.472;2022-11-18T08:10:35;98964.38;;;1.78;100.00
74268;BME280;62638;51.362;12.472;2022-11-18T08:13:00;98973.00;;;1.69;100.00
74268;BME280;62638;51.362;12.472;2022-11-18T08:15:25;98972.16;;;1.69;100.00
74268;BME280;62638;51.362;12.472;2022-11-18T08:17:51;98974.56;;;1.61;100.00
74268;BME280;62638;51.362;12.472;2022-11-18T08:20:16;98973.38;;;1.65;100.00
74268;BME280;62638;51.362;12.472;2022-11-18T08:22:41;98981.19;;;1.55;100.00
74268;BME280;62638;51.362;12.472;2022-11-18T08:25:07;98972.88;;;1.49;100.00
74268;BME280;62638;51.362;12.472;2022-11-18T08:27:32;98986.31;;;1.46;100.00
74268;BME280;62638;51.362;12.472;2022-11-18T08:29:58;98986.31;;;1.46;100.00
74268;BME280;62638;51.362;12.472;2022-11-18T08:32:23;98995.78;;;1.48;100.00
74268;BME280;62638;51.362;12.472;2022-11-18T08:34:49;98992.53;;;1.45;100.00
74268;BME280;62638;51.362;12.472;2022-11-18T08:37:15;98993.28;;;1.47;100.00
74268;BME280;62638;51.362;12.472;2022-11-18T08:39:41;99004.19;;;1.53;100.00
74268;BME280;62638;51.362;12.472;2022-11-18T08:42:06;99004.44;;;1.50;100.00
74268;BME280;62638;51.362;12.472;2022-11-18T08:44:31;99012.91;;;1.43;100.00
74268;BME280;62638;51.362;12.472;2022-11-18T08:46:58;99018.06;;;1.33;100.00
74268;BME280;62638;51.362;12.472;2022-11-18T08:49:24;99012.63;;;1.23;100.00
74268;BME280;62638;51.362;12.472;2022-11-18T08:51:49;99021.59;;;1.21;100.00
74268;BME280;62638;51.362;12.472;2022-11-18T08:54:14;99021.13;;;1.16;100.00
74268;BME280;62638;51.362;12.472;2022-11-18T08:56:40;99024.47;;;1.18;100.00
74268;BME280;62638;51.362;12.472;2022-11-18T08:59:06;99025.94;;;1.22;100.00
74268;BME280;62638;51.362;12.472;2022-11-18T09:01:32;99017.50;;;1.06;100.00
74268;BME280;62638;51.362;12.472;2022-11-18T09:03:58;99017.94;;;1.00;100.00
74268;BME280;62638;51.362;12.472;2022-11-18T09:06:24;99019.97;;;0.96;100.00
74268;BME280;62638;51.362;12.472;2022-11-18T09:08:49;99025.47;;;0.93;100.00
74268;BME280;62638;51.362;12.472;2022-11-18T09:11:28;99026.56;;;0.90;100.00
74268;BME280;62638;51.362;12.472;2022-11-18T09:13:55;99036.31;;;0.77;100.00
74268;BME280;62638;51.362;12.472;2022-11-18T09:16:23;99040.81;;;0.64;100.00
74268;BME280;62638;51.362;12.472;2022-11-18T09:18:49;99045.59;;;0.70;100.00
74268;BME280;62638;51.362;12.472;2022-11-18T09:21:15;99043.72;;;0.72;100.00
74268;BME280;62638;51.362;12.472;2022-11-18T09:23:41;99062.81;;;0.63;100.00
74268;BME280;62638;51.362;12.472;2022-11-18T09:26:11;99067.66;;;0.57;100.00
74268;BME280;62638;51.362;12.472;2022-11-18T09:28:37;99065.38;;;0.52;100.00
74268;BME280;62638;51.362;12.472;2022-11-18T09:31:04;99082.16;;;0.51;100.00
74268;BME280;62638;51.362;12.472;2022-11-18T09:33:30;99073.28;;;0.52;100.00
74268;BME280;62638;51.362;12.472;2022-11-18T09:35:55;99092.69;;;0.51;100.00
74268;BME280;62638;51.362;12.472;2022-11-18T09:38:20;99085.81;;;0.49;100.00
74268;BME280;62638;51.362;12.472;2022-11-18T09:41:06;99098.56;;;0.55;100.00
74268;BME280;62638;51.362;12.472;2022-11-18T09:49:24;99101.44;;;0.39;100.00
74268;BME280;62638;51.362;12.472;2022-11-18T09:51:51;99095.66;;;0.34;100.00
74268;BME280;62638;51.362;12.472;2022-11-18T09:54:23;99103.25;;;0.38;100.00
74268;BME280;62638;51.362;12.472;2022-11-18T09:56:51;99098.69;;;0.40;100.00
74268;BME280;62638;51.362;12.472;2022-11-18T09:59:19;99092.06;;;0.35;100.00
74268;BME280;62638;51.362;12.472;2022-11-18T10:01:45;99097.53;;;0.44;100.00
74268;BME280;62638;51.362;12.472;2022-11-18T10:04:17;99094.88;;;0.44;100.00
74268;BME280;62638;51.362;12.472;2022-11-18T10:06:43;99101.97;;;0.31;100.00
74268;BME280;62638;51.362;12.472;2022-11-18T10:09:34;99104.41;;;0.34;100.00
74268;BME280;62638;51.362;12.472;2022-11-18T10:12:17;99109.56;;;0.23;100.00
74268;BME280;62638;51.362;12.472;2022-11-18T10:14:54;99107.78;;;0.24;100.00
74268;BME280;62638;51.362;12.472;2022-11-18T10:17:49;99116.75;;;0.21;100.00
74268;BME280;62638;51.362;12.472;2022-11-18T10:23:17;99127.28;;;0.21;100.00
74268;BME280;62638;51.362;12.472;2022-11-18T10:25:46;99132.56;;;0.21;100.00
74268;BME280;62638;51.362;12.472;2022-11-18T10:28:20;99132.75;;;0.18;100.00
74268;BME280;62638;51.362;12.472;2022-11-18T10:30:46;99130.09;;;0.18;100.00
74268;BME280;62638;51.362;12.472;2022-11-18T10:35:46;99145.81;;;0.07;100.00
74268;BME280;62638;51.362;12.472;2022-11-18T10:43:10;99149.59;;;0.16;100.00
74268;BME280;62638;51.362;12.472;2022-11-18T10:45:37;99155.28;;;0.22;100.00
74268;BME280;62638;51.362;12.472;2022-11-18T10:48:17;99158.22;;;0.30;100.00
74268;BME280;62638;51.362;12.472;2022-11-18T10:50:45;99163.38;;;0.32;100.00
74268;BME280;62638;51.362;12.472;2022-11-18T10:56:17;99169.91;;;0.14;100.00
74268;BME280;62638;51.362;12.472;2022-11-18T10:58:47;99174.25;;;0.15;100.00
74268;BME280;62638;51.362;12.472;2022-11-18T11:01:24;99174.69;;;0.21;100.00
74268;BME280;62638;51.362;12.472;2022-11-18T11:11:31;99185.53;;;0.29;100.00
74268;BME280;62638;51.362;12.472;2022-11-18T11:14:18;99198.38;;;0.21;100.00
74268;BME280;62638;51.362;12.472;2022-11-18T11:17:04;99201.41;;;0.15;100.00
74268;BME280;62638;51.362;12.472;2022-11-18T11:22:21;99183.91;;;0.02;100.00
74268;BME280;62638;51.362;12.472;2022-11-18T11:24:46;99188.47;;;-0.01;100.00
74268;BME280;62638;51.362;12.472;2022-11-18T11:27:41;99192.66;;;0.02;100.00
74268;BME280;62638;51.362;12.472;2022-11-18T11:30:22;99193.59;;;0.01;100.00
74268;BME280;62638;51.362;12.472;2022-11-18T11:35:54;99199.72;;;0.02;100.00
74268;BME280;62638;51.362;12.472;2022-11-18T11:49:15;99212.03;;;0.14;100.00
74268;BME280;62638;51.362;12.472;2022-11-18T11:51:52;99207.44;;;0.17;100.00
74268;BME280;62638;51.362;12.472;2022-11-18T11:54:45;99204.88;;;0.16;100.00
74268;BME280;62638;51.362;12.472;2022-11-18T11:57:27;99210.47;;;0.11;100.00
74268;BME280;62638;51.362;12.472;2022-11-18T12:00:08;99207.19;;;0.08;100.00
74268;BME280;62638;51.362;12.472;2022-11-18T12:05:38;99212.78;;;0.03;100.00
74268;BME280;62638;51.362;12.472;2022-11-18T12:16:05;99203.81;;;-0.07;100.00
74268;BME280;62638;51.362;12.472;2022-11-18T12:18:40;99211.06;;;-0.11;100.00
74268;BME280;62638;51.362;12.472;2022-11-18T12:21:08;99220.31;;;-0.18;100.00
74268;BME280;62638;51.362;12.472;2022-11-18T12:27:11;99230.94;;;-0.19;100.00
74268;BME280;62638;51.362;12.472;2022-11-18T12:32:25;99228.00;;;-0.15;100.00
74268;BME280;62638;51.362;12.472;2022-11-18T12:35:21;99240.53;;;-0.18;100.00
74268;BME280;62638;51.362;12.472;2022-11-18T12:43:04;99252.50;;;-0.27;100.00
74268;BME280;62638;51.362;12.472;2022-11-18T12:45:52;99248.47;;;-0.32;100.00
74268;BME280;62638;51.362;12.472;2022-11-18T12:48:32;99255.31;;;-0.30;100.00
74268;BME280;62638;51.362;12.472;2022-11-18T12:51:01;99265.94;;;-0.31;100.00
74268;BME280;62638;51.362;12.472;2022-11-18T12:58:50;99256.03;;;-0.40;100.00
74268;BME280;62638;51.362;12.472;2022-11-18T13:01:19;99280.53;;;-0.40;100.00
74268;BME280;62638;51.362;12.472;2022-11-18T13:03:45;99274.09;;;-0.49;100.00
74268;BME280;62638;51.362;12.472;2022-11-18T13:06:29;99281.97;;;-0.49;100.00
74268;BME280;62638;51.362;12.472;2022-11-18T13:08:58;99283.50;;;-0.59;100.00
74268;BME280;62638;51.362;12.472;2022-11-18T13:11:27;99277.03;;;-0.67;100.00
74268;BME280;62638;51.362;12.472;2022-11-18T13:14:15;99287.47;;;-0.66;100.00
74268;BME280;62638;51.362;12.472;2022-11-18T13:17:00;99284.28;;;-0.71;100.00
74268;BME280;62638;51.362;12.472;2022-11-18T13:19:57;99281.75;;;-0.72;100.00
74268;BME280;62638;51.362;12.472;2022-11-18T13:22:22;99293.41;;;-0.76;99.80
74268;BME280;62638;51.362;12.472;2022-11-18T13:25:21;99302.59;;;-0.69;100.00
74268;BME280;62638;51.362;12.472;2022-11-18T13:30:16;99311.22;;;-0.81;99.42
74268;BME280;62638;51.362;12.472;2022-11-18T13:32:43;99310.56;;;-0.71;99.87
74268;BME280;62638;51.362;12.472;2022-11-18T13:35:13;99308.16;;;-0.74;99.51
74268;BME280;62638;51.362;12.472;2022-11-18T13:37:57;99310.78;;;-0.74;100.00
74268;BME280;62638;51.362;12.472;2022-11-18T13:40:27;99320.16;;;-0.70;100.00
74268;BME280;62638;51.362;12.472;2022-11-18T13:42:53;99319.69;;;-0.76;100.00
74268;BME280;62638;51.362;12.472;2022-11-18T13:45:19;99300.34;;;-0.75;100.00
74268;BME280;62638;51.362;12.472;2022-11-18T13:52:54;99341.47;;;-0.88;100.00
74268;BME280;62638;51.362;12.472;2022-11-18T13:55:26;99351.91;;;-1.01;100.00
74268;BME280;62638;51.362;12.472;2022-11-18T13:58:04;99347.28;;;-1.12;99.73
74268;BME280;62638;51.362;12.472;2022-11-18T14:00:33;99347.97;;;-1.08;100.00
74268;BME280;62638;51.362;12.472;2022-11-18T14:03:03;99353.31;;;-1.10;100.00
74268;BME280;62638;51.362;12.472;2022-11-18T14:05:30;99351.81;;;-1.00;100.00
74268;BME280;62638;51.362;12.472;2022-11-18T14:10:38;99360.34;;;-1.10;100.00
74268;BME280;62638;51.362;12.472;2022-11-18T14:13:16;99357.41;;;-1.20;100.00
74268;BME280;62638;51.362;12.472;2022-11-18T14:15:42;99376.75;;;-1.21;100.00
74268;BME280;62638;51.362;12.472;2022-11-18T14:18:37;99370.81;;;-1.24;99.85
74268;BME280;62638;51.362;12.472;2022-11-18T14:21:03;99376.34;;;-1.29;99.73
74268;BME280;62638;51.362;12.472;2022-11-18T14:23:34;99385.84;;;-1.26;99.93
74268;BME280;62638;51.362;12.472;2022-11-18T14:26:02;99384.81;;;-1.24;100.00
74268;BME280;62638;51.362;12.472;2022-11-18T14:28:38;99389.59;;;-1.16;100.00
74268;BME280;62638;51.362;12.472;2022-11-18T14:31:20;99387.34;;;-1.22;99.63
74268;BME280;62638;51.362;12.472;2022-11-18T14:36:46;99390.81;;;-1.22;99.36
74268;BME280;62638;51.362;12.472;2022-11-18T14:41:51;99411.47;;;-1.16;99.36
74268;BME280;62638;51.362;12.472;2022-11-18T14:44:18;99409.69;;;-1.15;99.03